SRR502 ENZV-EKBI
Flight info
| Callsign | SRR502 |
|---|---|
| Flight time | N/A |
| Altitude | 33000 |
| Route | BIVKI DCT GELBA |
| Aircraft | B77L/H-SDE1E2E3FGHIJ2J3J4J5M1RWXY/LB1D1 |
Departure
| Time | 2026-03-25 08:49 |
|---|---|
| Airport | Stavanger Airport, Sola (ENZV) |
Arrival
| Time | N/A |
|---|---|
| Airport | Billund Airport (EKBI) |
| Time | Latitude | Longitude | Altitude | Speed | Heading |
|---|---|---|---|---|---|
| 2026-03-25 08:15 | 58.88496 | 5.63244 | 32 ft | 0 kts | 61° |
| 2026-03-25 08:41 | 58.88500 | 5.63264 | 33 ft | 5 kts | 71° |
| 2026-03-25 08:42 | 58.88496 | 5.63328 | 33 ft | 5 kts | 110° |
| 2026-03-25 08:42 | 58.88472 | 5.63387 | 34 ft | 6 kts | 140° |
| 2026-03-25 08:42 | 58.88436 | 5.63417 | 35 ft | 6 kts | 167° |
| 2026-03-25 08:42 | 58.88383 | 5.63425 | 35 ft | 12 kts | 178° |
| 2026-03-25 08:43 | 58.88292 | 5.63427 | 35 ft | 13 kts | 180° |
| 2026-03-25 08:43 | 58.88199 | 5.63429 | 35 ft | 14 kts | 179° |
| 2026-03-25 08:43 | 58.88105 | 5.63432 | 35 ft | 14 kts | 179° |
| 2026-03-25 08:43 | 58.88010 | 5.63420 | 35 ft | 14 kts | 195° |
| 2026-03-25 08:44 | 58.87923 | 5.63351 | 36 ft | 14 kts | 203° |
| 2026-03-25 08:44 | 58.87894 | 5.63328 | 35 ft | 0 kts | 203° |
| 2026-03-25 08:45 | 58.87860 | 5.63302 | 36 ft | 12 kts | 198° |
| 2026-03-25 08:45 | 58.87764 | 5.63291 | 36 ft | 16 kts | 179° |
| 2026-03-25 08:45 | 58.87628 | 5.63295 | 35 ft | 21 kts | 179° |
| 2026-03-25 08:46 | 58.87484 | 5.63300 | 35 ft | 21 kts | 179° |
| 2026-03-25 08:46 | 58.87340 | 5.63304 | 36 ft | 21 kts | 179° |
| 2026-03-25 08:46 | 58.87195 | 5.63309 | 36 ft | 21 kts | 179° |
| 2026-03-25 08:46 | 58.87075 | 5.63311 | 37 ft | 13 kts | 176° |
| 2026-03-25 08:47 | 58.86993 | 5.63385 | 36 ft | 14 kts | 144° |
| 2026-03-25 08:47 | 58.86953 | 5.63521 | 38 ft | 10 kts | 94° |
| 2026-03-25 08:47 | 58.86952 | 5.63615 | 40 ft | 6 kts | 92° |
| 2026-03-25 08:47 | 58.86950 | 5.63699 | 41 ft | 6 kts | 91° |
| 2026-03-25 08:48 | 58.86959 | 5.63780 | 41 ft | 6 kts | 65° |
| 2026-03-25 08:48 | 58.86983 | 5.63808 | 41 ft | 4 kts | 8° |
| 2026-03-25 08:48 | 58.87002 | 5.63806 | 40 ft | 0 kts | 358° |
| 2026-03-25 08:49 | 58.87096 | 5.63801 | 39 ft | 37 kts | 358° |
| 2026-03-25 08:49 | 58.87620 | 5.63782 | 38 ft | 114 kts | 358° |
| 2026-03-25 08:49 | 58.88624 | 5.63757 | 100 ft | 164 kts | 354° |
| 2026-03-25 08:49 | 58.89764 | 5.63755 | 809 ft | 166 kts | 353° |
| 2026-03-25 08:50 | 58.90924 | 5.63707 | 1566 ft | 172 kts | 352° |
| 2026-03-25 08:50 | 58.92210 | 5.63650 | 1815 ft | 198 kts | 353° |
| 2026-03-25 08:50 | 58.93686 | 5.63592 | 2086 ft | 226 kts | 354° |
| 2026-03-25 08:50 | 58.95312 | 5.63544 | 2704 ft | 239 kts | 355° |
| 2026-03-25 08:51 | 58.96996 | 5.63500 | 3528 ft | 246 kts | 355° |
| 2026-03-25 08:51 | 58.98702 | 5.63454 | 4358 ft | 250 kts | 355° |
| 2026-03-25 08:51 | 59.00451 | 5.63407 | 5233 ft | 253 kts | 355° |
| 2026-03-25 08:51 | 59.02228 | 5.63358 | 6056 ft | 257 kts | 355° |
| 2026-03-25 08:52 | 59.04024 | 5.63407 | 6800 ft | 262 kts | 4° |
| 2026-03-25 08:52 | 59.05769 | 5.64734 | 7475 ft | 279 kts | 31° |
| 2026-03-25 08:52 | 59.07074 | 5.67576 | 8317 ft | 291 kts | 60° |
| 2026-03-25 08:52 | 59.07674 | 5.71385 | 9117 ft | 300 kts | 81° |
| 2026-03-25 08:53 | 59.07592 | 5.75427 | 9643 ft | 315 kts | 105° |
| 2026-03-25 08:53 | 59.06481 | 5.79293 | 9840 ft | 338 kts | 137° |
| 2026-03-25 08:53 | 59.04506 | 5.81642 | 10368 ft | 343 kts | 167° |
| 2026-03-25 08:53 | 59.02157 | 5.82123 | 11128 ft | 340 kts | 183° |
| 2026-03-25 08:54 | 58.99765 | 5.82142 | 11941 ft | 347 kts | 184° |
| 2026-03-25 08:54 | 58.97343 | 5.82171 | 12978 ft | 350 kts | 183° |
| 2026-03-25 08:54 | 58.94902 | 5.82220 | 13939 ft | 351 kts | 183° |
| 2026-03-25 08:54 | 58.92453 | 5.82292 | 14848 ft | 354 kts | 183° |
| 2026-03-25 08:55 | 58.89972 | 5.82379 | 15740 ft | 357 kts | 183° |
| 2026-03-25 08:55 | 58.87512 | 5.82479 | 16622 ft | 360 kts | 182° |
| 2026-03-25 08:55 | 58.84995 | 5.82585 | 17512 ft | 363 kts | 182° |
| 2026-03-25 08:55 | 58.82460 | 5.82694 | 18320 ft | 365 kts | 182° |
| 2026-03-25 08:56 | 58.79929 | 5.82806 | 19214 ft | 364 kts | 182° |
| 2026-03-25 08:56 | 58.77399 | 5.82918 | 20077 ft | 364 kts | 182° |
| 2026-03-25 08:56 | 58.74862 | 5.83097 | 20859 ft | 366 kts | 177° |
| 2026-03-25 08:56 | 58.72392 | 5.84415 | 21737 ft | 372 kts | 158° |
| 2026-03-25 08:57 | 58.70128 | 5.86776 | 22757 ft | 368 kts | 155° |
| 2026-03-25 08:57 | 58.67898 | 5.89217 | 23405 ft | 372 kts | 155° |
| 2026-03-25 08:57 | 58.65655 | 5.91675 | 23847 ft | 380 kts | 154° |
| 2026-03-25 08:57 | 58.63340 | 5.94197 | 24354 ft | 385 kts | 154° |
| 2026-03-25 08:58 | 58.60985 | 5.96744 | 24939 ft | 390 kts | 154° |
| 2026-03-25 08:58 | 58.58605 | 5.99302 | 25480 ft | 394 kts | 155° |
| 2026-03-25 08:58 | 58.56197 | 6.01875 | 26025 ft | 400 kts | 154° |
| 2026-03-25 08:58 | 58.53753 | 6.04477 | 26507 ft | 405 kts | 155° |
| 2026-03-25 08:59 | 58.51267 | 6.07112 | 27027 ft | 410 kts | 154° |
| 2026-03-25 08:59 | 58.48755 | 6.09769 | 27539 ft | 416 kts | 154° |
| 2026-03-25 08:59 | 58.46201 | 6.12473 | 28041 ft | 421 kts | 154° |
| 2026-03-25 08:59 | 58.43625 | 6.15199 | 28514 ft | 427 kts | 154° |
| 2026-03-25 09:00 | 58.41038 | 6.17931 | 28950 ft | 433 kts | 154° |
| 2026-03-25 09:00 | 58.38383 | 6.20727 | 29361 ft | 439 kts | 154° |
| 2026-03-25 09:00 | 58.35697 | 6.23548 | 29742 ft | 443 kts | 154° |
| 2026-03-25 09:00 | 58.32983 | 6.26400 | 30163 ft | 447 kts | 154° |
| 2026-03-25 09:01 | 58.30261 | 6.29282 | 30571 ft | 450 kts | 154° |
| 2026-03-25 09:01 | 58.27511 | 6.32199 | 30947 ft | 454 kts | 154° |
| 2026-03-25 09:01 | 58.24744 | 6.35134 | 31285 ft | 458 kts | 154° |
| 2026-03-25 09:01 | 58.21943 | 6.38100 | 31650 ft | 462 kts | 154° |
| 2026-03-25 09:02 | 58.19169 | 6.41031 | 32000 ft | 465 kts | 154° |